createdAt,value
2018-04-10T00:00:54.979Z,63.13
2018-04-10T00:01:55.116Z,64.18
2018-04-10T00:02:55.253Z,64.85
2018-04-10T00:03:55.391Z,65.33
2018-04-10T00:04:55.538Z,65.52
2018-04-10T00:05:55.667Z,65.33
2018-04-10T00:06:55.817Z,64.95
2018-04-10T00:07:56.089Z,64.85
2018-04-10T00:08:56.106Z,64.85
2018-04-10T00:09:56.243Z,64.75
2018-04-10T00:10:56.397Z,64.75
2018-04-10T00:11:56.531Z,64.47
2018-04-10T00:12:56.661Z,64.18
2018-04-10T00:13:56.818Z,64.09
2018-04-10T00:14:56.981Z,63.93
2018-04-10T00:15:57.129Z,64.09
2018-04-10T00:16:57.276Z,64.18
2018-04-10T00:17:57.417Z,64.12
2018-04-10T00:18:57.552Z,63.83
2018-04-10T00:19:57.701Z,64.22
2018-04-10T00:20:57.843Z,64.18
2018-04-10T00:21:57.979Z,63.89
2018-04-10T00:22:58.115Z,64.22
2018-04-10T00:23:58.262Z,64.31
2018-04-10T00:24:58.397Z,64.22
2018-04-10T00:25:58.538Z,64.12
2018-04-10T00:26:58.672Z,63.83
2018-04-10T00:27:58.811Z,64.22
2018-04-10T00:28:58.962Z,64.02
2018-04-10T00:29:59.094Z,64.02
2018-04-10T00:30:59.232Z,64.18
2018-04-10T00:31:59.378Z,64.40
2018-04-10T00:32:59.515Z,64.40
2018-04-10T00:33:59.654Z,64.22
2018-04-10T00:34:59.787Z,64.37
2018-04-10T00:35:59.937Z,64.18
2018-04-10T00:37:00.072Z,64.28
2018-04-10T00:38:00.211Z,64.28
2018-04-10T00:39:00.353Z,64.66
2018-04-10T00:40:00.492Z,65.04
2018-04-10T00:41:00.627Z,65.23
2018-04-10T00:42:00.767Z,64.66
2018-04-10T00:43:00.902Z,65.14
2018-04-10T00:44:01.046Z,65.04
2018-04-10T00:45:01.178Z,64.95
2018-04-10T00:46:01.313Z,64.95
2018-04-10T00:47:01.454Z,65.04
2018-04-10T00:48:01.590Z,64.95
2018-04-10T00:49:01.734Z,64.85
2018-04-10T00:50:01.864Z,64.85
2018-04-10T00:51:02.005Z,64.85
2018-04-10T00:52:02.144Z,64.85
2018-04-10T00:53:02.283Z,64.95
2018-04-10T00:54:02.443Z,65.23
2018-04-10T00:55:02.573Z,64.56
2018-04-10T00:56:02.714Z,64.37
2018-04-10T00:57:02.854Z,64.75
2018-04-10T00:58:03.018Z,64.37
2018-04-10T00:59:03.156Z,64.28
2018-04-10T01:00:03.291Z,63.99
2018-04-10T01:01:03.435Z,64.09
2018-04-10T01:02:03.586Z,64.18
2018-04-10T01:03:03.730Z,64.47
2018-04-10T01:04:03.868Z,64.66
2018-04-10T01:05:04.008Z,64.56
2018-04-10T01:06:04.189Z,64.75
2018-04-10T01:07:04.298Z,64.56
2018-04-10T01:08:04.445Z,64.66
2018-04-10T01:09:04.593Z,64.47
2018-04-10T01:10:04.727Z,64.85
2018-04-10T01:11:04.868Z,64.66
2018-04-10T01:12:05.004Z,64.95
2018-04-10T01:13:05.907Z,65.52
2018-04-10T01:14:05.323Z,65.04
2018-04-10T01:15:05.474Z,64.95
2018-04-10T01:16:05.616Z,64.95
2018-04-10T01:17:05.752Z,65.33
2018-04-10T01:18:05.914Z,65.61
2018-04-10T01:19:06.045Z,65.52
2018-04-10T01:20:06.186Z,65.71
2018-04-10T01:21:06.328Z,65.52
2018-04-10T01:22:06.478Z,65.52
2018-04-10T01:23:06.614Z,66.00
2018-04-10T01:24:06.759Z,65.87
2018-04-10T01:25:06.949Z,66.35
2018-04-10T01:26:07.044Z,67.21
2018-04-10T01:27:07.188Z,67.21
2018-04-10T01:28:07.361Z,67.30
2018-04-10T01:29:07.517Z,67.46
2018-04-10T01:30:07.650Z,68.99
2018-04-10T01:31:07.782Z,69.56
2018-04-10T01:32:07.923Z,69.62
2018-04-10T01:33:08.067Z,70.14
2018-04-10T01:34:08.200Z,69.95
2018-04-10T01:35:08.337Z,69.47
2018-04-10T01:36:08.476Z,69.09
2018-04-10T01:37:08.617Z,69.09
2018-04-10T01:38:08.754Z,69.37
2018-04-10T01:39:08.888Z,68.70
2018-04-10T01:40:09.031Z,68.35
2018-04-10T01:41:09.169Z,68.41
2018-04-10T01:42:09.310Z,68.16
2018-04-10T01:43:09.449Z,68.26
2018-04-10T01:44:09.587Z,68.26
2018-04-10T01:45:09.732Z,67.97
2018-04-10T01:46:09.871Z,67.21
2018-04-10T01:47:10.011Z,67.21
2018-04-10T01:48:10.148Z,67.11
2018-04-10T01:49:10.294Z,66.73
2018-04-10T01:50:10.430Z,67.21
2018-04-10T01:51:10.570Z,67.02
2018-04-10T01:52:10.717Z,67.30
2018-04-10T01:53:10.855Z,66.92
2018-04-10T01:54:10.992Z,67.21
2018-04-10T01:55:11.132Z,67.02
2018-04-10T01:56:11.271Z,67.21
2018-04-10T01:57:11.411Z,67.11
2018-04-10T01:58:11.546Z,67.40
2018-04-10T01:59:11.688Z,67.49
2018-04-10T02:00:11.824Z,66.83
2018-04-10T02:01:11.956Z,66.83
2018-04-10T02:02:12.095Z,66.92
2018-04-10T02:03:12.239Z,66.73
2018-04-10T02:04:12.376Z,66.54
2018-04-10T02:05:12.516Z,66.25
2018-04-10T02:06:12.655Z,66.16
2018-04-10T02:07:12.795Z,66.16
2018-04-10T02:08:12.964Z,66.16
2018-04-10T02:09:13.093Z,66.25
2018-04-10T02:10:13.239Z,66.35
2018-04-10T02:11:13.392Z,66.92
2018-04-10T02:12:13.541Z,66.73
2018-04-10T02:13:13.688Z,66.92
2018-04-10T02:14:13.847Z,66.35
2018-04-10T02:15:13.986Z,66.25
2018-04-10T02:16:14.135Z,66.25
2018-04-10T02:17:14.280Z,66.35
2018-04-10T02:18:14.448Z,66.35
2018-04-10T02:19:14.592Z,65.97
2018-04-10T02:20:14.744Z,66.16
2018-04-10T02:21:14.901Z,66.16
2018-04-10T02:22:15.055Z,66.16
2018-04-10T02:23:15.201Z,66.25
2018-04-10T02:24:15.332Z,66.06
2018-04-10T02:25:15.504Z,66.35
2018-04-10T02:26:15.650Z,66.16
2018-04-10T02:27:15.801Z,66.44
2018-04-10T02:28:15.943Z,66.54
2018-04-10T02:29:16.108Z,65.87
2018-04-10T02:30:16.251Z,66.06
2018-04-10T02:31:16.399Z,66.89
2018-04-10T02:32:16.543Z,68.04
2018-04-10T02:33:16.703Z,68.23
2018-04-10T02:34:16.845Z,67.88
2018-04-10T02:35:16.993Z,67.84
2018-04-10T02:36:17.190Z,67.75
2018-04-10T02:37:17.314Z,68.04
2018-04-10T02:38:17.466Z,67.55
2018-04-10T02:39:17.606Z,66.83
2018-04-10T02:40:17.760Z,68.04
2018-04-10T02:41:17.905Z,68.23
2018-04-10T02:42:18.053Z,68.23
2018-04-10T02:43:18.233Z,67.84
2018-04-10T02:44:18.378Z,67.94
2018-04-10T02:45:18.522Z,68.41
2018-04-10T02:46:18.677Z,68.04
2018-04-10T02:47:18.826Z,68.04
2018-04-10T02:48:18.969Z,68.29
2018-04-10T02:49:19.133Z,68.57
2018-04-10T02:50:19.281Z,69.43
2018-04-10T02:51:19.425Z,69.34
2018-04-10T02:52:19.568Z,69.15
2018-04-10T02:53:19.732Z,69.05
2018-04-10T02:54:19.862Z,69.05
2018-04-10T02:55:20.008Z,69.34
2018-04-10T02:56:20.160Z,69.47
2018-04-10T02:57:20.301Z,68.99
2018-04-10T02:58:20.444Z,68.86
2018-04-10T02:59:20.593Z,70.01
2018-04-10T03:00:20.742Z,70.45
2018-04-10T03:01:20.890Z,71.31
2018-04-10T03:02:21.037Z,71.21
2018-04-10T03:03:21.187Z,71.98
2018-04-10T03:04:21.328Z,71.88
2018-04-10T03:05:21.459Z,71.78
2018-04-10T03:06:21.612Z,72.26
2018-04-10T03:07:21.758Z,71.21
2018-04-10T03:08:21.908Z,71.06
2018-04-10T03:09:22.054Z,70.58
2018-04-10T03:10:22.190Z,70.29
2018-04-10T03:11:22.337Z,69.62
2018-04-10T03:12:22.483Z,69.91
2018-04-10T03:13:22.627Z,69.24
2018-04-10T03:14:22.776Z,69.43
2018-04-10T03:15:22.922Z,69.43
2018-04-10T03:16:23.068Z,68.67
2018-04-10T03:17:23.215Z,68.96
2018-04-10T03:18:23.363Z,68.57
2018-04-10T03:19:23.510Z,68.48
2018-04-10T03:20:23.661Z,68.80
2018-04-10T03:21:23.802Z,68.10
2018-04-10T03:22:23.945Z,68.29
2018-04-10T03:23:24.099Z,68.32
2018-04-10T03:24:24.237Z,68.41
2018-04-10T03:25:24.384Z,68.61
2018-04-10T03:26:24.533Z,67.94
2018-04-10T03:27:24.684Z,68.13
2018-04-10T03:28:24.821Z,67.46
2018-04-10T03:29:24.973Z,67.75
2018-04-10T03:30:25.119Z,67.75
2018-04-10T03:31:25.261Z,67.55
2018-04-10T03:32:25.406Z,68.23
2018-04-10T03:33:25.557Z,68.04
2018-04-10T03:34:25.735Z,68.04
2018-04-10T03:35:25.878Z,68.04
2018-04-10T03:36:26.028Z,67.94
2018-04-10T03:37:26.207Z,67.18
2018-04-10T03:38:26.345Z,67.18
2018-04-10T03:39:26.489Z,67.27
2018-04-10T03:40:26.662Z,67.36
2018-04-10T03:41:26.803Z,66.95
2018-04-10T03:42:26.949Z,66.89
2018-04-10T03:43:27.112Z,67.33
2018-04-10T03:44:27.252Z,67.43
2018-04-10T03:45:27.397Z,68.10
2018-04-10T03:46:27.543Z,67.84
2018-04-10T03:47:27.685Z,67.94
2018-04-10T03:48:27.833Z,67.46
2018-04-10T03:49:27.979Z,68.23
2018-04-10T03:50:28.125Z,68.48
2018-04-10T03:51:28.278Z,68.32
2018-04-10T03:52:28.412Z,68.29
2018-04-10T03:53:28.547Z,68.29
2018-04-10T03:54:28.689Z,68.23
2018-04-10T03:55:28.891Z,68.48
2018-04-10T03:56:28.982Z,67.91
2018-04-10T03:57:29.121Z,67.62
2018-04-10T03:58:29.260Z,67.91
2018-04-10T03:59:29.469Z,68.38
2018-04-10T04:00:29.521Z,68.48
2018-04-10T04:01:29.663Z,68.63
2018-04-10T04:02:29.804Z,69.02
2018-04-10T04:03:29.941Z,69.11
2018-04-10T04:04:30.091Z,69.31
2018-04-10T04:05:30.230Z,68.92
2018-04-10T04:06:30.371Z,68.92
2018-04-10T04:07:30.505Z,69.40
2018-04-10T04:08:30.645Z,68.86
2018-04-10T04:09:30.789Z,69.05
2018-04-10T04:10:30.925Z,69.02
2018-04-10T04:11:31.057Z,69.05
2018-04-10T04:12:31.198Z,68.96
2018-04-10T04:13:31.338Z,69.05
2018-04-10T04:14:31.476Z,69.24
2018-04-10T04:15:31.649Z,69.21
2018-04-10T04:16:31.798Z,69.31
2018-04-10T04:17:31.938Z,69.78
2018-04-10T04:18:32.080Z,69.59
2018-04-10T04:19:32.212Z,70.54
2018-04-10T04:20:32.349Z,70.45
2018-04-10T04:21:32.488Z,70.07
2018-04-10T04:22:32.630Z,69.97
2018-04-10T04:23:32.775Z,70.16
2018-04-10T04:24:32.953Z,70.26
2018-04-10T04:25:33.088Z,70.26
2018-04-10T04:26:33.225Z,69.87
2018-04-10T04:27:33.416Z,69.97
2018-04-10T04:28:33.550Z,69.68
2018-04-10T04:29:33.688Z,69.97
2018-04-10T04:30:33.827Z,70.36
2018-04-10T04:31:33.978Z,69.53
2018-04-10T04:32:34.114Z,69.59
2018-04-10T04:33:34.249Z,69.49
2018-04-10T04:34:34.394Z,70.01
2018-04-10T04:35:34.540Z,69.82
2018-04-10T04:36:34.674Z,70.20
2018-04-10T04:37:34.814Z,69.72
2018-04-10T04:38:34.947Z,70.01
2018-04-10T04:39:35.090Z,70.01
2018-04-10T04:40:35.224Z,69.72
2018-04-10T04:41:35.363Z,69.62
2018-04-10T04:42:35.505Z,70.20
2018-04-10T04:43:35.649Z,70.10
2018-04-10T04:44:35.786Z,69.53
2018-04-10T04:45:35.975Z,70.45
2018-04-10T04:46:36.085Z,71.12
2018-04-10T04:47:36.229Z,71.41
2018-04-10T04:48:36.365Z,72.71
2018-04-10T04:49:36.518Z,73.33
2018-04-10T04:50:36.652Z,74.19
2018-04-10T04:51:36.785Z,74.82
2018-04-10T04:52:36.952Z,76.35
2018-04-10T04:53:37.066Z,76.54
2018-04-10T04:54:37.191Z,76.82
2018-04-10T04:55:37.352Z,77.78
2018-04-10T04:56:37.483Z,78.35
2018-04-10T04:57:37.619Z,78.06
2018-04-10T04:58:37.759Z,77.78
2018-04-10T04:59:37.961Z,78.54
2018-04-10T05:00:38.052Z,78.16
2018-04-10T05:01:38.188Z,77.97
2018-04-10T05:02:38.334Z,76.86
2018-04-10T05:03:38.486Z,76.96
2018-04-10T05:04:38.619Z,76.77
2018-04-10T05:05:38.756Z,76.67
2018-04-10T05:06:38.893Z,77.06
2018-04-10T05:07:39.052Z,76.86
2018-04-10T05:08:39.187Z,76.77
2018-04-10T05:09:39.326Z,77.25
2018-04-10T05:10:39.466Z,77.25
2018-04-10T05:11:39.610Z,76.86
2018-04-10T05:12:39.746Z,77.06
2018-04-10T05:13:39.880Z,76.67
2018-04-10T05:14:40.015Z,76.20
2018-04-10T05:15:40.176Z,76.48
2018-04-10T05:16:40.313Z,76.48
2018-04-10T05:17:40.449Z,76.42
2018-04-10T05:18:40.593Z,75.66
2018-04-10T05:19:40.731Z,75.57
2018-04-10T05:20:40.881Z,75.66
2018-04-10T05:21:41.022Z,75.09
2018-04-10T05:22:41.154Z,74.46
2018-04-10T05:23:41.343Z,74.27
2018-04-10T05:24:41.373Z,73.79
2018-04-10T05:25:41.514Z,73.12
2018-04-10T05:26:41.653Z,73.12
2018-04-10T05:27:41.792Z,72.74
2018-04-10T05:28:41.934Z,72.83
2018-04-10T05:29:42.070Z,72.26
2018-04-10T05:30:42.213Z,72.17
2018-04-10T05:31:42.363Z,71.82
2018-04-10T05:32:42.498Z,72.01
2018-04-10T05:33:42.639Z,72.01
2018-04-10T05:34:42.782Z,71.78
2018-04-10T05:35:42.936Z,71.63
2018-04-10T05:36:43.061Z,72.30
2018-04-10T05:37:43.197Z,71.78
2018-04-10T05:38:43.333Z,71.88
2018-04-10T05:39:43.472Z,71.72
2018-04-10T05:40:43.612Z,71.92
2018-04-10T05:41:43.753Z,72.11
2018-04-10T05:42:43.896Z,71.72
2018-04-10T05:43:44.033Z,71.25
2018-04-10T05:44:44.171Z,71.63
2018-04-10T05:45:44.310Z,71.15
2018-04-10T05:46:44.457Z,70.96
2018-04-10T05:47:44.605Z,71.25
2018-04-10T05:48:44.744Z,71.25
2018-04-10T05:49:44.878Z,71.25
2018-04-10T05:50:45.016Z,70.77
2018-04-10T05:51:45.163Z,71.09
2018-04-10T05:52:45.325Z,71.19
2018-04-10T05:53:45.466Z,70.96
2018-04-10T05:54:45.604Z,70.61
2018-04-10T05:55:45.770Z,70.96
2018-04-10T05:56:45.906Z,71.06
2018-04-10T05:57:46.041Z,70.67
2018-04-10T05:58:46.228Z,71.06
2018-04-10T05:59:46.321Z,71.34
2018-04-10T06:00:46.457Z,71.72
2018-04-10T06:01:46.595Z,72.20
2018-04-10T06:02:46.737Z,72.26
2018-04-10T06:03:46.888Z,71.63
2018-04-10T06:04:47.543Z,71.88
2018-04-10T06:05:47.223Z,72.74
2018-04-10T06:06:47.382Z,73.37
2018-04-10T06:07:47.526Z,74.32
2018-04-10T06:08:47.663Z,74.04
2018-04-10T06:09:47.801Z,74.13
2018-04-10T06:10:47.950Z,73.94
2018-04-10T06:11:48.061Z,74.32
2018-04-10T06:12:48.211Z,74.13
2018-04-10T06:13:48.346Z,74.32
2018-04-10T06:14:48.556Z,74.99
2018-04-10T06:15:48.680Z,75.47
2018-04-10T06:16:48.804Z,74.99
2018-04-10T06:17:48.942Z,75.66
2018-04-10T06:18:49.094Z,76.04
2018-04-10T06:19:49.237Z,75.57
2018-04-10T06:20:49.373Z,75.70
2018-04-10T06:21:49.517Z,75.42
2018-04-10T06:22:49.674Z,75.37
2018-04-10T06:23:49.815Z,75.76
2018-04-10T06:24:49.958Z,76.33
2018-04-10T06:25:50.094Z,77.09
2018-04-10T06:26:50.239Z,77.86
2018-04-10T06:27:50.371Z,77.95
2018-04-10T06:28:50.509Z,78.05
2018-04-10T06:29:50.646Z,78.62
2018-04-10T06:30:50.806Z,79.00
2018-04-10T06:31:50.945Z,79.38
2018-04-10T06:32:51.081Z,80.05
2018-04-10T06:33:51.224Z,80.15
2018-04-10T06:34:52.063Z,80.05
2018-04-10T06:35:51.559Z,79.04
2018-04-10T06:36:51.702Z,78.56
2018-04-10T06:37:51.840Z,78.18
2018-04-10T06:38:51.981Z,77.03
2018-04-10T06:39:52.122Z,76.31
2018-04-10T06:40:52.257Z,76.46
2018-04-10T06:41:52.398Z,75.70
2018-04-10T06:42:52.541Z,76.37
2018-04-10T06:43:52.682Z,76.27
2018-04-10T06:44:52.820Z,76.94
2018-04-10T06:45:52.956Z,76.37
2018-04-10T06:46:53.100Z,76.94
2018-04-10T06:47:53.239Z,76.98
2018-04-10T06:48:53.385Z,76.31
2018-04-10T06:49:53.520Z,76.50
2018-04-10T06:50:53.657Z,76.12
2018-04-10T06:51:53.795Z,75.64
2018-04-10T06:52:53.942Z,76.37
2018-04-10T06:53:54.072Z,76.46
2018-04-10T06:54:54.211Z,76.21
2018-04-10T06:55:54.352Z,76.31
2018-04-10T06:56:54.491Z,76.50
2018-04-10T06:57:54.634Z,76.75
2018-04-10T06:58:54.778Z,76.88
2018-04-10T06:59:54.912Z,76.56
2018-04-10T07:00:55.049Z,77.42
2018-04-10T07:01:55.188Z,77.23
2018-04-10T07:02:55.325Z,77.26
2018-04-10T07:03:55.470Z,77.17
2018-04-10T07:04:55.608Z,76.69
2018-04-10T07:05:55.740Z,76.50
2018-04-10T07:06:55.879Z,75.83
2018-04-10T07:07:56.060Z,75.74
2018-04-10T07:08:56.163Z,75.68
2018-04-10T07:09:56.306Z,74.91
2018-04-10T07:10:56.444Z,74.53
2018-04-10T07:11:56.584Z,74.53
2018-04-10T07:12:56.713Z,74.57
2018-04-10T07:13:56.875Z,74.91
2018-04-10T07:14:57.012Z,74.95
2018-04-10T07:15:57.156Z,74.38
2018-04-10T07:16:57.293Z,74.09
2018-04-10T07:17:57.457Z,74.76
2018-04-10T07:18:57.633Z,74.38
2018-04-10T07:19:57.773Z,74.57
2018-04-10T07:20:57.915Z,74.76
2018-04-10T07:21:58.073Z,75.20
2018-04-10T07:22:58.205Z,75.39
2018-04-10T07:23:58.340Z,75.68
2018-04-10T07:24:58.485Z,76.16
2018-04-10T07:25:58.656Z,75.87
2018-04-10T07:26:58.793Z,75.68
2018-04-10T07:27:58.936Z,76.06
2018-04-10T07:28:59.075Z,75.91
2018-04-10T07:29:59.222Z,75.71
2018-04-10T07:30:59.367Z,75.05
2018-04-10T07:31:59.511Z,75.43
2018-04-10T07:32:59.655Z,75.05
2018-04-10T07:33:59.830Z,74.66
2018-04-10T07:34:59.936Z,74.57
2018-04-10T07:36:00.068Z,74.57
2018-04-10T07:37:00.206Z,74.38
2018-04-10T07:38:00.375Z,73.80
2018-04-10T07:39:00.497Z,73.55
2018-04-10T07:40:00.638Z,74.13
2018-04-10T07:41:00.780Z,74.22
2018-04-10T07:42:00.950Z,73.65
2018-04-10T07:43:01.062Z,74.13
2018-04-10T07:44:01.214Z,73.55
2018-04-10T07:45:01.356Z,73.94
2018-04-10T07:46:01.531Z,74.51
2018-04-10T07:47:01.666Z,74.32
2018-04-10T07:48:01.806Z,74.22
2018-04-10T07:49:01.969Z,74.04
2018-04-10T07:50:02.103Z,73.69
2018-04-10T07:51:02.239Z,72.92
2018-04-10T07:52:02.377Z,72.73
2018-04-10T07:53:02.555Z,73.11
2018-04-10T07:54:02.672Z,72.16
2018-04-10T07:55:02.811Z,72.92
2018-04-10T07:56:02.948Z,73.59
2018-04-10T07:57:03.109Z,74.20
2018-04-10T07:58:03.256Z,73.63
2018-04-10T07:59:03.391Z,73.54
2018-04-10T08:00:03.536Z,74.01
2018-04-10T08:01:03.690Z,74.24
2018-04-10T08:02:03.826Z,73.09
2018-04-10T08:03:03.978Z,71.75
2018-04-10T08:04:04.120Z,71.27
2018-04-10T08:05:04.310Z,70.03
2018-04-10T08:06:04.432Z,69.64
2018-04-10T08:07:04.569Z,69.45
2018-04-10T08:08:04.707Z,70.03
2018-04-10T08:09:04.856Z,70.25
2018-04-10T08:10:04.991Z,69.58
2018-04-10T08:11:05.133Z,68.33
2018-04-10T08:12:05.275Z,68.21
2018-04-10T08:13:05.421Z,68.72
2018-04-10T08:14:05.554Z,68.91
2018-04-10T08:15:05.700Z,70.54
2018-04-10T08:16:05.840Z,73.13
2018-04-10T08:17:06.005Z,71.78
2018-04-10T08:18:06.142Z,69.58
2018-04-10T08:19:06.279Z,70.00
2018-04-10T08:20:06.424Z,70.06
2018-04-10T08:21:06.577Z,70.38
2018-04-10T08:22:06.732Z,69.04
2018-04-10T08:23:06.873Z,68.56
2018-04-10T08:24:07.016Z,68.14
2018-04-10T08:25:07.197Z,68.08
2018-04-10T08:26:07.295Z,68.37
2018-04-10T08:27:07.434Z,67.95
2018-04-10T08:28:07.575Z,67.66
2018-04-10T08:29:07.716Z,68.33
2018-04-10T08:30:07.858Z,68.75
2018-04-10T08:31:07.994Z,68.08
2018-04-10T08:32:08.134Z,68.46
2018-04-10T08:33:08.271Z,67.32
2018-04-10T08:34:08.412Z,67.79
2018-04-10T08:35:08.557Z,69.33
2018-04-10T08:36:08.705Z,69.46
2018-04-10T08:37:08.849Z,67.73
2018-04-10T08:38:08.992Z,66.49
2018-04-10T08:39:09.129Z,66.10
2018-04-10T08:40:09.269Z,65.81
2018-04-10T08:41:09.406Z,65.91
2018-04-10T08:42:09.545Z,66.03
2018-04-10T08:43:09.689Z,66.39
2018-04-10T08:44:09.833Z,65.08
2018-04-10T08:45:09.969Z,65.36
2018-04-10T08:46:10.113Z,65.27
2018-04-10T08:47:10.250Z,65.17
2018-04-10T08:48:10.388Z,64.22
2018-04-10T08:49:10.538Z,64.98
2018-04-10T08:50:10.674Z,65.65
2018-04-10T08:51:10.821Z,65.11
2018-04-10T08:52:10.957Z,64.92
2018-04-10T08:53:11.097Z,65.01
2018-04-10T08:54:11.251Z,64.34
2018-04-10T08:55:11.391Z,64.92
2018-04-10T08:56:11.536Z,66.00
2018-04-10T08:57:11.719Z,65.14
2018-04-10T08:58:11.856Z,65.05
2018-04-10T08:59:12.006Z,64.56
2018-04-10T09:00:12.151Z,64.37
2018-04-10T09:01:12.287Z,65.23
2018-04-10T09:02:12.447Z,64.12
2018-04-10T09:03:12.571Z,63.73
2018-04-10T09:04:12.715Z,63.54
2018-04-10T09:05:12.864Z,63.64
2018-04-10T09:06:13.086Z,62.87
2018-04-10T09:07:13.099Z,61.52
2018-04-10T09:08:13.241Z,59.69
2018-04-10T09:09:13.382Z,59.12
2018-04-10T09:10:13.544Z,60.21
2018-04-10T09:11:13.690Z,60.30
2018-04-10T09:12:13.825Z,60.49
2018-04-10T09:13:13.965Z,59.82
2018-04-10T09:14:14.120Z,60.30
2018-04-10T09:15:14.253Z,58.57
2018-04-10T09:16:14.395Z,59.34
2018-04-10T09:17:14.536Z,58.09
2018-04-10T09:18:14.684Z,57.22
2018-04-10T09:19:14.830Z,56.48
2018-04-10T09:20:14.962Z,56.58
2018-04-10T09:21:15.101Z,58.31
2018-04-10T09:22:15.248Z,58.70
2018-04-10T09:23:15.382Z,58.79
2018-04-10T09:24:15.527Z,58.12
2018-04-10T09:25:15.691Z,57.73
2018-04-10T09:26:15.839Z,57.15
2018-04-10T09:27:15.977Z,57.64
2018-04-10T09:28:16.170Z,56.67
2018-04-10T09:29:16.275Z,55.13
2018-04-10T09:30:16.415Z,54.97
2018-04-10T09:31:16.559Z,55.55
2018-04-10T09:32:16.729Z,55.16
2018-04-10T09:33:16.872Z,56.12
2018-04-10T09:34:17.027Z,56.90
2018-04-10T09:35:17.171Z,55.65
2018-04-10T09:36:17.314Z,54.68
2018-04-10T09:37:17.462Z,54.49
2018-04-10T09:38:17.607Z,54.39
2018-04-10T09:39:17.739Z,55.45
2018-04-10T09:40:17.916Z,54.78
2018-04-10T09:41:18.043Z,54.80
2018-04-10T09:42:18.190Z,57.02
2018-04-10T09:43:18.330Z,55.67
2018-04-10T09:44:18.490Z,54.71
2018-04-10T09:45:18.620Z,53.65
2018-04-10T09:46:18.762Z,54.32
2018-04-10T09:47:18.902Z,55.00
2018-04-10T09:48:19.050Z,54.71
2018-04-10T09:49:19.188Z,53.55
2018-04-10T09:50:19.325Z,52.78
2018-04-10T09:51:19.479Z,52.20
2018-04-10T09:52:19.626Z,54.03
2018-04-10T09:53:19.761Z,54.93
2018-04-10T09:54:19.904Z,53.48
2018-04-10T09:55:20.051Z,51.75
2018-04-10T09:56:20.192Z,51.65
2018-04-10T09:57:20.334Z,49.91
2018-04-10T09:58:20.478Z,48.57
2018-04-10T09:59:20.621Z,50.11
2018-04-10T10:00:20.765Z,48.86
2018-04-10T10:01:20.905Z,50.11
2018-04-10T10:02:21.056Z,48.95
2018-04-10T10:03:21.202Z,49.91
2018-04-10T10:04:21.347Z,49.91
2018-04-10T10:05:21.493Z,50.40
2018-04-10T10:06:21.647Z,50.62
2018-04-10T10:07:21.787Z,51.00
2018-04-10T10:08:21.931Z,50.01
2018-04-10T10:09:22.083Z,50.04
2018-04-10T10:10:22.224Z,49.24
2018-04-10T10:11:22.367Z,49.27
2018-04-10T10:12:22.512Z,49.37
2018-04-10T10:13:22.654Z,50.13
2018-04-10T10:14:22.799Z,50.52
2018-04-10T10:15:22.943Z,51.87
2018-04-10T10:16:23.088Z,51.77
2018-04-10T10:17:23.230Z,49.55
2018-04-10T10:18:23.375Z,50.90
2018-04-10T10:19:23.513Z,49.68
2018-04-10T10:20:23.663Z,50.84
2018-04-10T10:21:23.808Z,51.03
2018-04-10T10:22:23.948Z,50.35
2018-04-10T10:23:24.092Z,48.33
2018-04-10T10:24:24.239Z,49.48
2018-04-10T10:25:24.395Z,50.18
2018-04-10T10:26:24.531Z,52.01
2018-04-10T10:27:24.674Z,50.57
2018-04-10T10:28:24.815Z,49.51
2018-04-10T10:29:24.993Z,49.51
2018-04-10T10:30:25.134Z,47.96
2018-04-10T10:31:25.281Z,48.06
2018-04-10T10:32:25.431Z,48.64
2018-04-10T10:33:25.602Z,48.83
2018-04-10T10:34:25.739Z,48.83
2018-04-10T10:35:25.881Z,50.21
2018-04-10T10:36:26.020Z,50.79
2018-04-10T10:37:26.200Z,50.40
2018-04-10T10:38:26.302Z,48.18
2018-04-10T10:39:26.451Z,47.99
2018-04-10T10:40:26.589Z,47.31
2018-04-10T10:41:26.738Z,47.12
2018-04-10T10:42:26.882Z,50.11
2018-04-10T10:43:27.024Z,50.11
2018-04-10T10:44:27.222Z,48.08
2018-04-10T10:45:27.356Z,46.85
2018-04-10T10:46:27.499Z,47.24
2018-04-10T10:47:27.645Z,47.33
2018-04-10T10:48:27.801Z,49.07
2018-04-10T10:49:27.953Z,46.17
2018-04-10T10:50:28.090Z,45.11
2018-04-10T10:51:28.236Z,47.07
2018-04-10T10:52:28.382Z,46.00
2018-04-10T10:53:28.525Z,46.39
2018-04-10T10:54:28.680Z,44.36
2018-04-10T10:55:28.831Z,44.29
2018-04-10T10:56:28.971Z,43.46
2018-04-10T10:57:29.119Z,42.10
2018-04-10T10:58:29.261Z,41.35
2018-04-10T10:59:29.412Z,41.49
2018-04-10T11:00:29.560Z,39.37
2018-04-10T11:01:29.706Z,36.69
2018-04-10T11:02:29.869Z,36.81
2018-04-10T11:03:30.011Z,36.94
2018-04-10T11:04:30.173Z,34.45
2018-04-10T11:05:30.316Z,31.76
2018-04-10T11:06:30.478Z,32.48
2018-04-10T11:07:30.615Z,31.25
2018-04-10T11:08:30.791Z,31.08
2018-04-10T11:09:30.931Z,29.53
2018-04-10T11:10:31.078Z,28.88
2018-04-10T11:11:31.232Z,27.80
2018-04-10T11:12:31.418Z,26.44
2018-04-10T11:13:31.562Z,25.17
2018-04-10T11:14:31.716Z,25.96
2018-04-10T11:15:31.899Z,24.62
2018-04-10T11:16:32.044Z,23.34
2018-04-10T11:17:32.206Z,23.55
2018-04-10T11:18:32.356Z,22.48
2018-04-10T11:19:32.532Z,22.28
2018-04-10T11:20:32.685Z,21.51
2018-04-10T11:21:32.831Z,21.33
2018-04-10T11:22:33.006Z,21.53
2018-04-10T11:23:33.153Z,21.54
2018-04-10T11:24:33.394Z,21.04
2018-04-10T11:25:33.452Z,20.75
2018-04-10T11:26:33.602Z,20.67
2018-04-10T11:27:33.791Z,21.65
2018-04-10T11:28:33.947Z,20.18
2018-04-10T11:29:34.105Z,21.36
2018-04-10T11:30:34.255Z,21.28
2018-04-10T11:31:34.422Z,20.09
2018-04-10T11:34:06.519Z,19.12
2018-04-10T11:35:06.645Z,19.02
2018-04-10T11:36:06.803Z,18.71
2018-04-10T11:37:06.959Z,18.33
2018-04-10T11:38:07.111Z,18.23
2018-04-10T11:39:07.320Z,18.24
2018-04-10T11:40:07.430Z,19.04
2018-04-10T11:41:07.586Z,19.64
2018-04-10T11:42:07.744Z,17.86
2018-04-10T11:43:07.898Z,17.37
2018-04-10T11:44:08.062Z,17.68
2018-04-10T11:45:08.219Z,17.87
2018-04-10T11:46:08.371Z,17.68
2018-04-10T11:47:08.528Z,17.17
2018-04-10T11:48:08.692Z,16.87
2018-04-10T11:49:08.854Z,17.17
2018-04-10T11:50:09.015Z,17.87
2018-04-10T11:51:09.173Z,16.20
2018-04-10T11:52:09.329Z,15.81
2018-04-10T11:53:09.482Z,16.59
2018-04-10T11:54:09.640Z,17.18
2018-04-10T11:55:09.797Z,17.66
2018-04-10T11:56:09.958Z,17.76
2018-04-10T11:57:10.132Z,18.55
2018-04-10T11:58:10.282Z,17.77
2018-04-10T11:59:10.462Z,17.78
2018-04-10T12:00:10.634Z,16.20
2018-04-10T12:01:10.780Z,15.52
2018-04-10T12:02:10.933Z,16.31
2018-04-10T12:03:11.116Z,16.22
2018-04-10T12:04:11.279Z,15.23
2018-04-10T12:05:11.442Z,15.70
2018-04-10T12:06:11.599Z,15.70
2018-04-10T12:07:11.777Z,15.89
2018-04-10T12:08:11.935Z,15.41
2018-04-10T12:09:12.090Z,14.62
2018-04-10T12:10:12.269Z,15.42
2018-04-10T12:11:12.410Z,15.43
2018-04-10T12:12:12.566Z,15.63
2018-04-10T12:13:12.731Z,15.72
2018-04-10T12:14:12.925Z,14.73
2018-04-10T12:15:13.060Z,14.64
2018-04-10T12:16:13.224Z,14.53
2018-04-10T12:17:13.382Z,14.62
2018-04-10T12:18:13.550Z,15.63
2018-04-10T12:19:13.701Z,13.95
2018-04-10T12:20:13.868Z,13.95
2018-04-10T12:21:14.028Z,15.23
2018-04-10T12:22:14.192Z,15.44
2018-04-10T12:23:14.349Z,16.23
2018-04-10T12:24:14.546Z,15.05
2018-04-10T12:25:14.769Z,14.04
2018-04-10T12:26:14.853Z,14.65
2018-04-10T12:27:15.013Z,14.15
2018-04-10T12:28:15.171Z,14.06
2018-04-10T12:29:15.362Z,14.07
2018-04-10T12:30:15.516Z,14.07
2018-04-10T12:31:15.679Z,14.37
2018-04-10T12:32:15.839Z,12.70
2018-04-10T12:33:16.049Z,13.98
2018-04-10T12:34:16.171Z,13.78
2018-04-10T12:35:16.331Z,13.68
2018-04-10T12:36:16.494Z,13.78
2018-04-10T12:37:16.682Z,13.39
2018-04-10T12:38:16.834Z,13.98
2018-04-10T12:39:17.003Z,14.18
2018-04-10T12:40:17.166Z,13.39
2018-04-10T12:41:17.330Z,13.49
2018-04-10T12:42:17.472Z,12.30
2018-04-10T12:43:17.632Z,12.01
2018-04-10T12:44:17.793Z,11.61
2018-04-10T12:45:17.969Z,12.01
2018-04-10T12:46:18.127Z,10.51
2018-04-10T12:47:18.293Z,11.00
2018-04-10T12:48:18.451Z,12.59
2018-04-10T12:49:18.610Z,12.98
2018-04-10T12:50:18.768Z,13.18
2018-04-10T12:51:18.926Z,13.37
2018-04-10T12:52:19.089Z,14.26
2018-04-10T12:53:19.239Z,14.07
2018-04-10T12:54:19.400Z,13.26
2018-04-10T12:55:19.568Z,13.57
2018-04-10T12:56:19.730Z,13.07